sensor_id;sensor_type;location;lat;lon;timestamp;P1;durP1;ratioP1;P2;durP2;ratioP2
61108;SDS011;46995;55.740;37.402;2023-06-22T00:02:17;13.23;;;6.78;;
61108;SDS011;46995;55.740;37.402;2023-06-22T00:04:43;22.98;;;7.40;;
61108;SDS011;46995;55.740;37.402;2023-06-22T00:07:10;16.30;;;7.63;;
61108;SDS011;46995;55.740;37.402;2023-06-22T00:09:36;21.38;;;8.65;;
61108;SDS011;46995;55.740;37.402;2023-06-22T00:12:02;18.20;;;7.95;;
61108;SDS011;46995;55.740;37.402;2023-06-22T00:14:28;13.88;;;7.47;;
61108;SDS011;46995;55.740;37.402;2023-06-22T00:16:54;14.60;;;7.53;;
61108;SDS011;46995;55.740;37.402;2023-06-22T00:19:24;17.65;;;7.57;;
61108;SDS011;46995;55.740;37.402;2023-06-22T00:21:50;13.65;;;6.35;;
61108;SDS011;46995;55.740;37.402;2023-06-22T00:24:20;17.77;;;7.32;;
61108;SDS011;46995;55.740;37.402;2023-06-22T00:26:47;17.55;;;6.30;;
61108;SDS011;46995;55.740;37.402;2023-06-22T00:29:14;16.75;;;7.00;;
61108;SDS011;46995;55.740;37.402;2023-06-22T00:31:40;17.83;;;7.47;;
61108;SDS011;46995;55.740;37.402;2023-06-22T00:34:06;17.13;;;7.20;;
61108;SDS011;46995;55.740;37.402;2023-06-22T00:36:34;18.13;;;6.80;;
61108;SDS011;46995;55.740;37.402;2023-06-22T00:39:03;15.20;;;7.15;;
61108;SDS011;46995;55.740;37.402;2023-06-22T00:43:56;11.15;;;6.78;;
61108;SDS011;46995;55.740;37.402;2023-06-22T00:46:23;18.50;;;6.85;;
61108;SDS011;46995;55.740;37.402;2023-06-22T00:48:50;16.58;;;7.07;;
61108;SDS011;46995;55.740;37.402;2023-06-22T00:51:17;15.70;;;6.65;;
61108;SDS011;46995;55.740;37.402;2023-06-22T00:53:50;15.35;;;6.72;;
61108;SDS011;46995;55.740;37.402;2023-06-22T00:56:19;18.10;;;6.88;;
61108;SDS011;46995;55.740;37.402;2023-06-22T00:58:50;19.00;;;7.50;;
61108;SDS011;46995;55.740;37.402;2023-06-22T01:01:18;21.23;;;6.90;;
61108;SDS011;46995;55.740;37.402;2023-06-22T01:03:49;20.52;;;7.57;;
61108;SDS011;46995;55.740;37.402;2023-06-22T01:06:19;17.33;;;6.88;;
61108;SDS011;46995;55.740;37.402;2023-06-22T01:09:08;19.70;;;7.32;;
61108;SDS011;46995;55.740;37.402;2023-06-22T01:11:42;19.25;;;6.15;;
61108;SDS011;46995;55.740;37.402;2023-06-22T01:14:35;16.75;;;7.20;;
61108;SDS011;46995;55.740;37.402;2023-06-22T01:17:07;16.98;;;6.85;;
61108;SDS011;46995;55.740;37.402;2023-06-22T01:19:37;15.25;;;6.93;;
61108;SDS011;46995;55.740;37.402;2023-06-22T01:22:11;13.35;;;6.50;;
61108;SDS011;46995;55.740;37.402;2023-06-22T01:29:58;23.77;;;7.43;;
61108;SDS011;46995;55.740;37.402;2023-06-22T01:32:32;14.63;;;7.55;;
61108;SDS011;46995;55.740;37.402;2023-06-22T01:35:00;26.15;;;8.13;;
61108;SDS011;46995;55.740;37.402;2023-06-22T01:37:31;14.25;;;7.00;;
61108;SDS011;46995;55.740;37.402;2023-06-22T01:40:07;20.10;;;7.78;;
61108;SDS011;46995;55.740;37.402;2023-06-22T01:42:56;18.20;;;7.93;;
61108;SDS011;46995;55.740;37.402;2023-06-22T01:45:31;27.60;;;11.38;;
61108;SDS011;46995;55.740;37.402;2023-06-22T01:48:00;19.73;;;9.15;;
61108;SDS011;46995;55.740;37.402;2023-06-22T01:50:27;14.00;;;7.20;;
61108;SDS011;46995;55.740;37.402;2023-06-22T01:52:55;15.50;;;7.45;;
61108;SDS011;46995;55.740;37.402;2023-06-22T01:55:21;19.45;;;7.47;;
61108;SDS011;46995;55.740;37.402;2023-06-22T01:57:48;18.05;;;7.32;;
61108;SDS011;46995;55.740;37.402;2023-06-22T02:00:17;17.60;;;6.82;;
61108;SDS011;46995;55.740;37.402;2023-06-22T02:02:53;13.25;;;6.53;;
61108;SDS011;46995;55.740;37.402;2023-06-22T02:05:22;15.88;;;6.60;;
61108;SDS011;46995;55.740;37.402;2023-06-22T02:08:07;15.57;;;7.65;;
61108;SDS011;46995;55.740;37.402;2023-06-22T02:10:36;18.15;;;7.35;;
61108;SDS011;46995;55.740;37.402;2023-06-22T02:13:04;17.52;;;7.03;;
61108;SDS011;46995;55.740;37.402;2023-06-22T02:15:32;14.10;;;7.07;;
61108;SDS011;46995;55.740;37.402;2023-06-22T02:17:59;15.40;;;7.50;;
61108;SDS011;46995;55.740;37.402;2023-06-22T02:20:45;16.60;;;6.78;;
61108;SDS011;46995;55.740;37.402;2023-06-22T02:23:11;17.55;;;7.07;;
61108;SDS011;46995;55.740;37.402;2023-06-22T02:25:37;18.73;;;6.93;;
61108;SDS011;46995;55.740;37.402;2023-06-22T02:28:05;17.45;;;8.50;;
61108;SDS011;46995;55.740;37.402;2023-06-22T02:30:31;17.92;;;7.80;;
61108;SDS011;46995;55.740;37.402;2023-06-22T02:32:59;21.58;;;7.85;;
61108;SDS011;46995;55.740;37.402;2023-06-22T02:35:28;20.95;;;6.93;;
61108;SDS011;46995;55.740;37.402;2023-06-22T02:38:01;32.28;;;8.20;;
61108;SDS011;46995;55.740;37.402;2023-06-22T02:40:28;17.83;;;7.68;;
61108;SDS011;46995;55.740;37.402;2023-06-22T02:42:57;21.42;;;7.55;;
61108;SDS011;46995;55.740;37.402;2023-06-22T02:45:29;27.80;;;9.00;;
61108;SDS011;46995;55.740;37.402;2023-06-22T02:47:55;24.00;;;8.30;;
61108;SDS011;46995;55.740;37.402;2023-06-22T02:50:21;23.33;;;7.13;;
61108;SDS011;46995;55.740;37.402;2023-06-22T02:52:47;29.88;;;7.88;;
61108;SDS011;46995;55.740;37.402;2023-06-22T02:55:13;27.30;;;8.45;;
61108;SDS011;46995;55.740;37.402;2023-06-22T02:57:42;17.77;;;7.85;;
61108;SDS011;46995;55.740;37.402;2023-06-22T03:00:10;31.67;;;9.93;;
61108;SDS011;46995;55.740;37.402;2023-06-22T03:02:45;27.75;;;9.38;;
61108;SDS011;46995;55.740;37.402;2023-06-22T03:05:13;25.85;;;7.90;;
61108;SDS011;46995;55.740;37.402;2023-06-22T03:07:41;17.63;;;7.65;;
61108;SDS011;46995;55.740;37.402;2023-06-22T03:10:09;25.02;;;7.75;;
61108;SDS011;46995;55.740;37.402;2023-06-22T03:12:37;28.30;;;8.13;;
61108;SDS011;46995;55.740;37.402;2023-06-22T03:15:07;24.73;;;8.18;;
61108;SDS011;46995;55.740;37.402;2023-06-22T03:17:37;39.10;;;9.35;;
61108;SDS011;46995;55.740;37.402;2023-06-22T03:20:05;36.03;;;11.68;;
61108;SDS011;46995;55.740;37.402;2023-06-22T03:22:36;24.98;;;7.88;;
61108;SDS011;46995;55.740;37.402;2023-06-22T03:25:02;20.40;;;7.78;;
61108;SDS011;46995;55.740;37.402;2023-06-22T03:27:34;21.08;;;6.68;;
61108;SDS011;46995;55.740;37.402;2023-06-22T03:30:00;25.17;;;8.80;;
61108;SDS011;46995;55.740;37.402;2023-06-22T03:32:29;18.60;;;7.57;;
61108;SDS011;46995;55.740;37.402;2023-06-22T03:34:57;21.27;;;7.75;;
61108;SDS011;46995;55.740;37.402;2023-06-22T03:37:25;18.38;;;7.13;;
61108;SDS011;46995;55.740;37.402;2023-06-22T03:39:52;14.07;;;6.85;;
61108;SDS011;46995;55.740;37.402;2023-06-22T03:42:19;19.50;;;7.00;;
61108;SDS011;46995;55.740;37.402;2023-06-22T03:44:45;14.00;;;8.27;;
61108;SDS011;46995;55.740;37.402;2023-06-22T03:47:12;18.50;;;7.75;;
61108;SDS011;46995;55.740;37.402;2023-06-22T03:49:38;12.60;;;7.65;;
61108;SDS011;46995;55.740;37.402;2023-06-22T03:52:04;19.27;;;6.28;;
61108;SDS011;46995;55.740;37.402;2023-06-22T03:54:30;18.92;;;7.22;;
61108;SDS011;46995;55.740;37.402;2023-06-22T03:56:57;17.07;;;7.00;;
61108;SDS011;46995;55.740;37.402;2023-06-22T03:59:24;23.73;;;6.88;;
61108;SDS011;46995;55.740;37.402;2023-06-22T04:01:50;11.93;;;6.07;;
61108;SDS011;46995;55.740;37.402;2023-06-22T04:04:19;12.85;;;5.80;;
61108;SDS011;46995;55.740;37.402;2023-06-22T04:06:46;11.25;;;5.68;;
61108;SDS011;46995;55.740;37.402;2023-06-22T04:09:12;15.10;;;5.67;;
61108;SDS011;46995;55.740;37.402;2023-06-22T04:11:38;12.47;;;5.83;;
61108;SDS011;46995;55.740;37.402;2023-06-22T04:14:04;11.23;;;5.47;;
61108;SDS011;46995;55.740;37.402;2023-06-22T04:16:30;13.70;;;5.78;;
61108;SDS011;46995;55.740;37.402;2023-06-22T04:18:55;8.32;;;5.47;;
61108;SDS011;46995;55.740;37.402;2023-06-22T04:21:21;10.63;;;4.97;;
61108;SDS011;46995;55.740;37.402;2023-06-22T04:23:47;9.98;;;4.05;;
61108;SDS011;46995;55.740;37.402;2023-06-22T04:26:14;10.17;;;4.63;;
61108;SDS011;46995;55.740;37.402;2023-06-22T04:28:57;10.50;;;4.38;;
61108;SDS011;46995;55.740;37.402;2023-06-22T04:31:23;9.40;;;4.63;;
61108;SDS011;46995;55.740;37.402;2023-06-22T04:33:52;9.20;;;5.00;;
61108;SDS011;46995;55.740;37.402;2023-06-22T04:36:18;6.18;;;3.70;;
61108;SDS011;46995;55.740;37.402;2023-06-22T04:38:44;9.93;;;4.10;;
61108;SDS011;46995;55.740;37.402;2023-06-22T04:41:10;10.38;;;4.50;;
61108;SDS011;46995;55.740;37.402;2023-06-22T04:43:39;5.88;;;4.00;;
61108;SDS011;46995;55.740;37.402;2023-06-22T04:46:05;13.35;;;4.50;;
61108;SDS011;46995;55.740;37.402;2023-06-22T04:48:31;12.98;;;5.13;;
61108;SDS011;46995;55.740;37.402;2023-06-22T04:51:01;7.43;;;5.03;;
61108;SDS011;46995;55.740;37.402;2023-06-22T04:53:30;10.50;;;5.50;;
61108;SDS011;46995;55.740;37.402;2023-06-22T04:55:57;13.50;;;4.55;;
61108;SDS011;46995;55.740;37.402;2023-06-22T04:58:22;7.57;;;4.35;;
61108;SDS011;46995;55.740;37.402;2023-06-22T05:00:52;19.45;;;5.93;;
61108;SDS011;46995;55.740;37.402;2023-06-22T05:03:18;6.72;;;4.55;;
61108;SDS011;46995;55.740;37.402;2023-06-22T05:05:44;6.33;;;4.17;;
61108;SDS011;46995;55.740;37.402;2023-06-22T05:08:10;10.20;;;3.80;;
61108;SDS011;46995;55.740;37.402;2023-06-22T05:10:36;5.60;;;3.70;;
61108;SDS011;46995;55.740;37.402;2023-06-22T05:13:02;7.05;;;4.40;;
61108;SDS011;46995;55.740;37.402;2023-06-22T05:15:31;10.13;;;4.30;;
61108;SDS011;46995;55.740;37.402;2023-06-22T05:18:02;10.23;;;4.13;;
61108;SDS011;46995;55.740;37.402;2023-06-22T05:20:30;6.80;;;4.30;;
61108;SDS011;46995;55.740;37.402;2023-06-22T05:22:56;6.85;;;3.70;;
61108;SDS011;46995;55.740;37.402;2023-06-22T05:25:22;5.88;;;4.00;;
61108;SDS011;46995;55.740;37.402;2023-06-22T05:27:48;16.07;;;9.20;;
61108;SDS011;46995;55.740;37.402;2023-06-22T05:30:16;6.80;;;4.43;;
61108;SDS011;46995;55.740;37.402;2023-06-22T05:32:42;7.53;;;4.40;;
61108;SDS011;46995;55.740;37.402;2023-06-22T05:35:09;14.18;;;5.60;;
61108;SDS011;46995;55.740;37.402;2023-06-22T05:37:35;12.23;;;4.20;;
61108;SDS011;46995;55.740;37.402;2023-06-22T05:40:02;10.50;;;4.72;;
61108;SDS011;46995;55.740;37.402;2023-06-22T05:42:29;7.07;;;4.43;;
61108;SDS011;46995;55.740;37.402;2023-06-22T05:44:55;8.90;;;5.07;;
61108;SDS011;46995;55.740;37.402;2023-06-22T05:47:21;9.63;;;4.70;;
61108;SDS011;46995;55.740;37.402;2023-06-22T05:49:48;7.85;;;4.75;;
61108;SDS011;46995;55.740;37.402;2023-06-22T05:52:14;7.80;;;4.65;;
61108;SDS011;46995;55.740;37.402;2023-06-22T05:54:40;16.07;;;5.70;;
61108;SDS011;46995;55.740;37.402;2023-06-22T05:59:32;17.37;;;11.13;;
61108;SDS011;46995;55.740;37.402;2023-06-22T06:01:58;22.67;;;14.50;;
61108;SDS011;46995;55.740;37.402;2023-06-22T06:04:24;10.20;;;4.97;;
61108;SDS011;46995;55.740;37.402;2023-06-22T06:06:50;10.60;;;5.40;;
61108;SDS011;46995;55.740;37.402;2023-06-22T06:09:16;7.63;;;4.50;;
61108;SDS011;46995;55.740;37.402;2023-06-22T06:11:42;7.60;;;4.17;;
61108;SDS011;46995;55.740;37.402;2023-06-22T06:14:12;11.82;;;5.10;;
61108;SDS011;46995;55.740;37.402;2023-06-22T06:16:38;7.82;;;4.40;;
61108;SDS011;46995;55.740;37.402;2023-06-22T06:19:06;13.45;;;6.55;;
61108;SDS011;46995;55.740;37.402;2023-06-22T06:21:33;7.47;;;4.43;;
61108;SDS011;46995;55.740;37.402;2023-06-22T06:23:59;12.13;;;4.67;;
61108;SDS011;46995;55.740;37.402;2023-06-22T06:26:25;7.93;;;4.30;;
61108;SDS011;46995;55.740;37.402;2023-06-22T06:28:55;7.95;;;5.07;;
61108;SDS011;46995;55.740;37.402;2023-06-22T06:31:23;9.23;;;4.18;;
61108;SDS011;46995;55.740;37.402;2023-06-22T06:33:49;12.67;;;5.37;;
61108;SDS011;46995;55.740;37.402;2023-06-22T06:36:15;6.47;;;4.10;;
61108;SDS011;46995;55.740;37.402;2023-06-22T06:38:42;8.43;;;4.50;;
61108;SDS011;46995;55.740;37.402;2023-06-22T06:41:08;8.95;;;4.20;;
61108;SDS011;46995;55.740;37.402;2023-06-22T06:43:34;8.87;;;4.50;;
61108;SDS011;46995;55.740;37.402;2023-06-22T06:45:59;11.07;;;4.47;;
61108;SDS011;46995;55.740;37.402;2023-06-22T06:48:29;10.07;;;4.40;;
61108;SDS011;46995;55.740;37.402;2023-06-22T06:50:55;10.40;;;4.15;;
61108;SDS011;46995;55.740;37.402;2023-06-22T06:53:21;6.80;;;3.70;;
61108;SDS011;46995;55.740;37.402;2023-06-22T06:55:47;11.53;;;4.43;;
61108;SDS011;46995;55.740;37.402;2023-06-22T06:58:13;6.07;;;4.18;;
61108;SDS011;46995;55.740;37.402;2023-06-22T07:03:08;8.27;;;4.13;;
61108;SDS011;46995;55.740;37.402;2023-06-22T07:05:34;8.13;;;4.10;;
61108;SDS011;46995;55.740;37.402;2023-06-22T07:08:01;6.40;;;3.90;;
61108;SDS011;46995;55.740;37.402;2023-06-22T07:10:28;14.65;;;6.93;;
61108;SDS011;46995;55.740;37.402;2023-06-22T07:12:54;9.20;;;4.32;;
61108;SDS011;46995;55.740;37.402;2023-06-22T07:15:20;6.10;;;4.00;;
61108;SDS011;46995;55.740;37.402;2023-06-22T07:17:46;5.57;;;3.83;;
61108;SDS011;46995;55.740;37.402;2023-06-22T07:20:11;6.87;;;3.93;;
61108;SDS011;46995;55.740;37.402;2023-06-22T07:22:39;5.95;;;3.80;;
61108;SDS011;46995;55.740;37.402;2023-06-22T07:25:06;7.32;;;4.28;;
61108;SDS011;46995;55.740;37.402;2023-06-22T07:27:39;8.02;;;4.18;;
61108;SDS011;46995;55.740;37.402;2023-06-22T07:30:09;7.50;;;3.90;;
61108;SDS011;46995;55.740;37.402;2023-06-22T07:32:35;12.20;;;5.00;;
61108;SDS011;46995;55.740;37.402;2023-06-22T07:35:03;9.30;;;3.58;;
61108;SDS011;46995;55.740;37.402;2023-06-22T07:37:31;8.10;;;3.50;;
61108;SDS011;46995;55.740;37.402;2023-06-22T07:39:58;6.07;;;4.00;;
61108;SDS011;46995;55.740;37.402;2023-06-22T07:42:25;8.20;;;3.70;;
61108;SDS011;46995;55.740;37.402;2023-06-22T07:44:51;8.63;;;3.83;;
61108;SDS011;46995;55.740;37.402;2023-06-22T07:47:18;8.65;;;4.18;;
61108;SDS011;46995;55.740;37.402;2023-06-22T07:49:48;12.70;;;4.07;;
61108;SDS011;46995;55.740;37.402;2023-06-22T07:52:13;8.68;;;4.47;;
61108;SDS011;46995;55.740;37.402;2023-06-22T07:54:39;8.43;;;3.93;;
61108;SDS011;46995;55.740;37.402;2023-06-22T07:57:05;9.60;;;3.70;;
61108;SDS011;46995;55.740;37.402;2023-06-22T07:59:31;7.95;;;4.00;;
61108;SDS011;46995;55.740;37.402;2023-06-22T08:01:57;7.67;;;4.80;;
61108;SDS011;46995;55.740;37.402;2023-06-22T08:04:23;11.60;;;4.63;;
61108;SDS011;46995;55.740;37.402;2023-06-22T08:06:49;8.67;;;4.83;;
61108;SDS011;46995;55.740;37.402;2023-06-22T08:09:15;9.50;;;4.50;;
61108;SDS011;46995;55.740;37.402;2023-06-22T08:11:41;9.67;;;4.07;;
61108;SDS011;46995;55.740;37.402;2023-06-22T08:14:07;6.57;;;3.77;;
61108;SDS011;46995;55.740;37.402;2023-06-22T08:16:33;9.10;;;4.28;;
61108;SDS011;46995;55.740;37.402;2023-06-22T08:18:59;9.03;;;4.37;;
61108;SDS011;46995;55.740;37.402;2023-06-22T08:21:25;32.88;;;24.52;;
61108;SDS011;46995;55.740;37.402;2023-06-22T08:23:51;8.57;;;5.50;;
61108;SDS011;46995;55.740;37.402;2023-06-22T08:26:16;11.00;;;5.10;;
61108;SDS011;46995;55.740;37.402;2023-06-22T08:28:42;10.57;;;4.17;;
61108;SDS011;46995;55.740;37.402;2023-06-22T08:31:08;6.63;;;4.57;;
61108;SDS011;46995;55.740;37.402;2023-06-22T08:33:34;9.27;;;4.10;;
61108;SDS011;46995;55.740;37.402;2023-06-22T08:36:00;7.30;;;4.23;;
61108;SDS011;46995;55.740;37.402;2023-06-22T08:38:26;7.53;;;4.10;;
61108;SDS011;46995;55.740;37.402;2023-06-22T08:40:52;27.27;;;17.03;;
61108;SDS011;46995;55.740;37.402;2023-06-22T08:43:18;8.83;;;5.63;;
61108;SDS011;46995;55.740;37.402;2023-06-22T08:45:44;7.65;;;4.55;;
61108;SDS011;46995;55.740;37.402;2023-06-22T08:48:10;9.23;;;4.90;;
61108;SDS011;46995;55.740;37.402;2023-06-22T08:50:37;11.65;;;4.68;;
61108;SDS011;46995;55.740;37.402;2023-06-22T08:53:02;12.43;;;5.17;;
61108;SDS011;46995;55.740;37.402;2023-06-22T08:55:28;9.23;;;3.87;;
61108;SDS011;46995;55.740;37.402;2023-06-22T08:57:54;8.47;;;4.43;;
61108;SDS011;46995;55.740;37.402;2023-06-22T09:02:47;6.20;;;4.13;;
61108;SDS011;46995;55.740;37.402;2023-06-22T09:05:13;8.95;;;4.70;;
61108;SDS011;46995;55.740;37.402;2023-06-22T09:07:40;5.97;;;4.10;;
61108;SDS011;46995;55.740;37.402;2023-06-22T09:10:06;12.97;;;4.63;;
61108;SDS011;46995;55.740;37.402;2023-06-22T09:12:33;6.28;;;4.25;;
61108;SDS011;46995;55.740;37.402;2023-06-22T09:15:00;9.27;;;4.32;;
61108;SDS011;46995;55.740;37.402;2023-06-22T09:17:30;6.25;;;4.38;;
61108;SDS011;46995;55.740;37.402;2023-06-22T09:19:56;6.17;;;4.33;;
61108;SDS011;46995;55.740;37.402;2023-06-22T09:22:21;6.90;;;4.27;;
61108;SDS011;46995;55.740;37.402;2023-06-22T09:24:48;7.32;;;4.32;;
61108;SDS011;46995;55.740;37.402;2023-06-22T09:27:13;6.65;;;4.53;;
61108;SDS011;46995;55.740;37.402;2023-06-22T09:29:39;10.30;;;4.63;;
61108;SDS011;46995;55.740;37.402;2023-06-22T09:32:05;8.43;;;4.70;;
61108;SDS011;46995;55.740;37.402;2023-06-22T09:34:32;7.88;;;4.75;;
61108;SDS011;46995;55.740;37.402;2023-06-22T09:36:58;10.00;;;4.50;;
61108;SDS011;46995;55.740;37.402;2023-06-22T09:39:26;26.75;;;16.73;;
61108;SDS011;46995;55.740;37.402;2023-06-22T09:41:52;9.90;;;5.60;;
61108;SDS011;46995;55.740;37.402;2023-06-22T09:44:18;8.80;;;5.22;;
61108;SDS011;46995;55.740;37.402;2023-06-22T09:46:44;7.93;;;4.70;;
61108;SDS011;46995;55.740;37.402;2023-06-22T09:49:09;6.63;;;5.10;;
61108;SDS011;46995;55.740;37.402;2023-06-22T09:51:35;6.40;;;4.53;;
61108;SDS011;46995;55.740;37.402;2023-06-22T09:54:01;10.37;;;4.90;;
61108;SDS011;46995;55.740;37.402;2023-06-22T09:56:27;9.17;;;4.80;;
61108;SDS011;46995;55.740;37.402;2023-06-22T09:58:54;9.60;;;4.72;;
61108;SDS011;46995;55.740;37.402;2023-06-22T10:01:20;6.67;;;4.40;;
61108;SDS011;46995;55.740;37.402;2023-06-22T10:03:47;8.38;;;5.07;;
61108;SDS011;46995;55.740;37.402;2023-06-22T10:06:12;13.32;;;5.05;;
61108;SDS011;46995;55.740;37.402;2023-06-22T10:08:38;7.63;;;4.67;;
61108;SDS011;46995;55.740;37.402;2023-06-22T10:11:06;13.38;;;8.73;;
61108;SDS011;46995;55.740;37.402;2023-06-22T10:13:33;8.30;;;5.80;;
61108;SDS011;46995;55.740;37.402;2023-06-22T10:15:59;8.27;;;4.70;;
61108;SDS011;46995;55.740;37.402;2023-06-22T10:18:25;8.20;;;5.20;;
61108;SDS011;46995;55.740;37.402;2023-06-22T10:20:51;6.20;;;4.27;;
61108;SDS011;46995;55.740;37.402;2023-06-22T10:23:22;9.38;;;5.22;;
61108;SDS011;46995;55.740;37.402;2023-06-22T10:25:48;6.30;;;4.53;;
61108;SDS011;46995;55.740;37.402;2023-06-22T10:28:14;10.07;;;4.80;;
61108;SDS011;46995;55.740;37.402;2023-06-22T10:30:40;8.75;;;4.45;;
61108;SDS011;46995;55.740;37.402;2023-06-22T10:33:10;9.48;;;4.50;;
61108;SDS011;46995;55.740;37.402;2023-06-22T10:35:37;8.73;;;5.55;;
61108;SDS011;46995;55.740;37.402;2023-06-22T10:38:03;9.05;;;4.90;;
61108;SDS011;46995;55.740;37.402;2023-06-22T10:40:30;10.05;;;4.70;;
61108;SDS011;46995;55.740;37.402;2023-06-22T10:42:56;11.18;;;7.22;;
61108;SDS011;46995;55.740;37.402;2023-06-22T10:45:22;8.35;;;4.90;;
61108;SDS011;46995;55.740;37.402;2023-06-22T10:47:48;8.98;;;4.75;;
61108;SDS011;46995;55.740;37.402;2023-06-22T10:50:14;6.13;;;4.53;;
61108;SDS011;46995;55.740;37.402;2023-06-22T10:52:40;9.27;;;4.73;;
61108;SDS011;46995;55.740;37.402;2023-06-22T10:55:09;13.02;;;4.90;;
61108;SDS011;46995;55.740;37.402;2023-06-22T10:57:35;5.97;;;4.75;;
61108;SDS011;46995;55.740;37.402;2023-06-22T11:00:02;11.95;;;4.47;;
61108;SDS011;46995;55.740;37.402;2023-06-22T11:02:32;6.35;;;4.55;;
61108;SDS011;46995;55.740;37.402;2023-06-22T11:04:58;7.27;;;4.67;;
61108;SDS011;46995;55.740;37.402;2023-06-22T11:07:26;8.88;;;4.25;;
61108;SDS011;46995;55.740;37.402;2023-06-22T11:09:55;7.57;;;4.60;;
61108;SDS011;46995;55.740;37.402;2023-06-22T11:12:21;7.28;;;4.28;;
61108;SDS011;46995;55.740;37.402;2023-06-22T11:14:47;9.25;;;5.50;;
61108;SDS011;46995;55.740;37.402;2023-06-22T11:17:16;9.55;;;4.70;;
61108;SDS011;46995;55.740;37.402;2023-06-22T11:19:42;6.63;;;5.10;;
61108;SDS011;46995;55.740;37.402;2023-06-22T11:22:07;10.65;;;4.30;;
61108;SDS011;46995;55.740;37.402;2023-06-22T11:24:33;7.73;;;5.03;;
61108;SDS011;46995;55.740;37.402;2023-06-22T11:26:59;6.53;;;4.75;;
61108;SDS011;46995;55.740;37.402;2023-06-22T11:29:25;7.93;;;4.83;;
61108;SDS011;46995;55.740;37.402;2023-06-22T11:31:51;6.73;;;4.80;;
61108;SDS011;46995;55.740;37.402;2023-06-22T11:34:17;5.50;;;4.55;;
61108;SDS011;46995;55.740;37.402;2023-06-22T11:36:44;9.55;;;6.50;;
61108;SDS011;46995;55.740;37.402;2023-06-22T11:39:11;12.40;;;8.63;;
61108;SDS011;46995;55.740;37.402;2023-06-22T11:41:40;7.50;;;5.20;;
61108;SDS011;46995;55.740;37.402;2023-06-22T11:44:07;8.93;;;5.65;;
61108;SDS011;46995;55.740;37.402;2023-06-22T11:46:33;11.15;;;4.88;;
61108;SDS011;46995;55.740;37.402;2023-06-22T11:49:00;5.60;;;4.28;;
61108;SDS011;46995;55.740;37.402;2023-06-22T11:51:26;6.60;;;4.87;;
61108;SDS011;46995;55.740;37.402;2023-06-22T11:53:52;10.63;;;4.85;;
61108;SDS011;46995;55.740;37.402;2023-06-22T11:56:19;11.30;;;5.35;;
61108;SDS011;46995;55.740;37.402;2023-06-22T11:58:44;6.40;;;5.07;;
61108;SDS011;46995;55.740;37.402;2023-06-22T12:01:11;5.75;;;4.53;;
61108;SDS011;46995;55.740;37.402;2023-06-22T12:03:40;7.05;;;4.90;;
61108;SDS011;46995;55.740;37.402;2023-06-22T12:06:08;7.15;;;4.65;;
61108;SDS011;46995;55.740;37.402;2023-06-22T12:08:34;9.63;;;4.55;;
61108;SDS011;46995;55.740;37.402;2023-06-22T12:11:00;8.30;;;5.15;;
61108;SDS011;46995;55.740;37.402;2023-06-22T12:13:26;10.38;;;5.32;;
61108;SDS011;46995;55.740;37.402;2023-06-22T12:15:52;8.40;;;5.13;;
61108;SDS011;46995;55.740;37.402;2023-06-22T12:18:18;8.90;;;4.78;;
61108;SDS011;46995;55.740;37.402;2023-06-22T12:20:47;9.45;;;5.65;;
61108;SDS011;46995;55.740;37.402;2023-06-22T12:25:40;7.82;;;5.00;;
61108;SDS011;46995;55.740;37.402;2023-06-22T12:28:05;9.45;;;5.38;;
61108;SDS011;46995;55.740;37.402;2023-06-22T12:30:34;7.63;;;4.28;;
61108;SDS011;46995;55.740;37.402;2023-06-22T12:33:04;7.45;;;4.75;;
61108;SDS011;46995;55.740;37.402;2023-06-22T12:35:54;7.85;;;5.10;;
61108;SDS011;46995;55.740;37.402;2023-06-22T12:38:20;7.55;;;5.20;;
61108;SDS011;46995;55.740;37.402;2023-06-22T12:40:46;7.47;;;5.20;;
61108;SDS011;46995;55.740;37.402;2023-06-22T12:43:15;7.97;;;4.80;;
61108;SDS011;46995;55.740;37.402;2023-06-22T12:45:40;8.00;;;4.97;;
61108;SDS011;46995;55.740;37.402;2023-06-22T12:50:39;8.02;;;4.90;;
61108;SDS011;46995;55.740;37.402;2023-06-22T12:53:05;10.98;;;5.72;;
61108;SDS011;46995;55.740;37.402;2023-06-22T12:57:57;9.10;;;5.00;;
61108;SDS011;46995;55.740;37.402;2023-06-22T13:00:23;6.30;;;4.78;;
61108;SDS011;46995;55.740;37.402;2023-06-22T13:02:49;8.77;;;5.13;;
61108;SDS011;46995;55.740;37.402;2023-06-22T13:05:15;6.97;;;5.45;;
61108;SDS011;46995;55.740;37.402;2023-06-22T13:07:41;12.02;;;6.22;;
61108;SDS011;46995;55.740;37.402;2023-06-22T13:10:08;12.10;;;5.78;;
61108;SDS011;46995;55.740;37.402;2023-06-22T13:14:59;9.00;;;5.20;;
61108;SDS011;46995;55.740;37.402;2023-06-22T13:17:26;7.88;;;5.22;;
61108;SDS011;46995;55.740;37.402;2023-06-22T13:19:52;10.25;;;5.00;;
61108;SDS011;46995;55.740;37.402;2023-06-22T13:25:14;15.45;;;6.15;;
61108;SDS011;46995;55.740;37.402;2023-06-22T13:27:45;8.00;;;5.10;;
61108;SDS011;46995;55.740;37.402;2023-06-22T13:30:11;10.25;;;5.15;;
61108;SDS011;46995;55.740;37.402;2023-06-22T13:32:37;6.38;;;5.03;;
61108;SDS011;46995;55.740;37.402;2023-06-22T13:35:03;10.52;;;5.32;;
61108;SDS011;46995;55.740;37.402;2023-06-22T13:37:30;10.27;;;5.60;;
61108;SDS011;46995;55.740;37.402;2023-06-22T13:39:56;9.35;;;5.82;;
61108;SDS011;46995;55.740;37.402;2023-06-22T13:42:28;11.35;;;5.78;;
61108;SDS011;46995;55.740;37.402;2023-06-22T13:44:56;10.35;;;5.30;;
61108;SDS011;46995;55.740;37.402;2023-06-22T13:47:22;9.52;;;4.95;;
61108;SDS011;46995;55.740;37.402;2023-06-22T13:49:47;8.25;;;4.97;;
61108;SDS011;46995;55.740;37.402;2023-06-22T13:52:13;8.35;;;5.43;;
61108;SDS011;46995;55.740;37.402;2023-06-22T13:54:39;7.43;;;5.32;;
61108;SDS011;46995;55.740;37.402;2023-06-22T13:57:06;10.80;;;5.18;;
61108;SDS011;46995;55.740;37.402;2023-06-22T14:01:57;10.57;;;5.80;;
61108;SDS011;46995;55.740;37.402;2023-06-22T14:04:23;9.20;;;5.38;;
61108;SDS011;46995;55.740;37.402;2023-06-22T14:06:49;7.72;;;5.25;;
61108;SDS011;46995;55.740;37.402;2023-06-22T14:09:15;7.22;;;5.22;;
61108;SDS011;46995;55.740;37.402;2023-06-22T14:11:41;11.23;;;5.35;;
61108;SDS011;46995;55.740;37.402;2023-06-22T14:14:07;10.65;;;5.45;;
61108;SDS011;46995;55.740;37.402;2023-06-22T14:16:33;9.77;;;5.70;;
61108;SDS011;46995;55.740;37.402;2023-06-22T14:18:59;8.20;;;5.05;;
61108;SDS011;46995;55.740;37.402;2023-06-22T14:21:31;10.25;;;5.72;;
61108;SDS011;46995;55.740;37.402;2023-06-22T14:23:57;9.57;;;5.45;;
61108;SDS011;46995;55.740;37.402;2023-06-22T14:26:23;13.25;;;5.28;;
61108;SDS011;46995;55.740;37.402;2023-06-22T14:28:49;8.32;;;5.32;;
61108;SDS011;46995;55.740;37.402;2023-06-22T14:31:17;8.60;;;5.47;;
61108;SDS011;46995;55.740;37.402;2023-06-22T14:33:47;8.82;;;5.45;;
61108;SDS011;46995;55.740;37.402;2023-06-22T14:36:15;8.07;;;5.50;;
61108;SDS011;46995;55.740;37.402;2023-06-22T14:38:41;7.20;;;5.28;;
61108;SDS011;46995;55.740;37.402;2023-06-22T14:41:07;9.73;;;5.53;;
61108;SDS011;46995;55.740;37.402;2023-06-22T14:43:33;8.85;;;5.30;;
61108;SDS011;46995;55.740;37.402;2023-06-22T14:45:59;9.18;;;5.45;;
61108;SDS011;46995;55.740;37.402;2023-06-22T14:48:24;6.72;;;5.38;;
61108;SDS011;46995;55.740;37.402;2023-06-22T14:50:50;10.05;;;5.50;;
61108;SDS011;46995;55.740;37.402;2023-06-22T14:53:16;10.00;;;5.63;;
61108;SDS011;46995;55.740;37.402;2023-06-22T14:55:42;12.68;;;5.75;;
61108;SDS011;46995;55.740;37.402;2023-06-22T14:58:09;13.88;;;5.97;;
61108;SDS011;46995;55.740;37.402;2023-06-22T15:00:35;8.27;;;5.00;;